sensor_id;sensor_type;location;lat;lon;timestamp;P1;durP1;ratioP1;P2;durP2;ratioP2
66371;SDS011;53168;51.146;17.120;2023-05-19T00:06:31;7.37;;;7.37;;
66371;SDS011;53168;51.146;17.120;2023-05-19T00:09:16;6.86;;;6.86;;
66371;SDS011;53168;51.146;17.120;2023-05-19T00:25:42;7.02;;;7.02;;
66371;SDS011;53168;51.146;17.120;2023-05-19T00:28:56;7.13;;;7.13;;
66371;SDS011;53168;51.146;17.120;2023-05-19T00:35:12;6.97;;;6.97;;
66371;SDS011;53168;51.146;17.120;2023-05-19T00:38:20;7.18;;;7.18;;
66371;SDS011;53168;51.146;17.120;2023-05-19T00:40:59;7.13;;;7.13;;
66371;SDS011;53168;51.146;17.120;2023-05-19T00:46:43;5.94;;;5.94;;
66371;SDS011;53168;51.146;17.120;2023-05-19T00:49:44;6.46;;;6.46;;
66371;SDS011;53168;51.146;17.120;2023-05-19T00:52:54;6.85;;;6.85;;
66371;SDS011;53168;51.146;17.120;2023-05-19T00:55:49;7.07;;;7.07;;
66371;SDS011;53168;51.146;17.120;2023-05-19T00:58:25;7.03;;;7.03;;
66371;SDS011;53168;51.146;17.120;2023-05-19T01:01:38;6.62;;;6.62;;
66371;SDS011;53168;51.146;17.120;2023-05-19T01:07:07;7.29;;;7.29;;
66371;SDS011;53168;51.146;17.120;2023-05-19T01:13:05;7.37;;;7.37;;
66371;SDS011;53168;51.146;17.120;2023-05-19T01:32:52;6.43;;;6.43;;
66371;SDS011;53168;51.146;17.120;2023-05-19T01:35:59;7.03;;;7.03;;
66371;SDS011;53168;51.146;17.120;2023-05-19T01:42:10;7.70;;;7.70;;
66371;SDS011;53168;51.146;17.120;2023-05-19T01:44:47;8.44;;;8.42;;
66371;SDS011;53168;51.146;17.120;2023-05-19T01:47:21;6.90;;;6.90;;
66371;SDS011;53168;51.146;17.120;2023-05-19T01:49:55;6.29;;;6.29;;
66371;SDS011;53168;51.146;17.120;2023-05-19T01:52:34;8.25;;;8.25;;
66371;SDS011;53168;51.146;17.120;2023-05-19T01:55:07;8.08;;;8.08;;
66371;SDS011;53168;51.146;17.120;2023-05-19T01:58:10;8.48;;;8.48;;
66371;SDS011;53168;51.146;17.120;2023-05-19T02:00:57;8.95;;;8.95;;
66371;SDS011;53168;51.146;17.120;2023-05-19T02:04:02;6.55;;;6.55;;
66371;SDS011;53168;51.146;17.120;2023-05-19T02:10:27;7.65;;;7.65;;
66371;SDS011;53168;51.146;17.120;2023-05-19T02:13:18;7.48;;;7.48;;
66371;SDS011;53168;51.146;17.120;2023-05-19T02:18:57;5.32;;;5.32;;
66371;SDS011;53168;51.146;17.120;2023-05-19T02:21:56;7.36;;;7.36;;
66371;SDS011;53168;51.146;17.120;2023-05-19T02:25:10;7.53;;;7.53;;
66371;SDS011;53168;51.146;17.120;2023-05-19T02:28:17;7.50;;;7.50;;
66371;SDS011;53168;51.146;17.120;2023-05-19T02:32:00;6.38;;;6.38;;
66371;SDS011;53168;51.146;17.120;2023-05-19T02:38:44;8.53;;;8.53;;
66371;SDS011;53168;51.146;17.120;2023-05-19T02:42:15;9.22;;;9.22;;
66371;SDS011;53168;51.146;17.120;2023-05-19T03:01:03;6.84;;;6.84;;
66371;SDS011;53168;51.146;17.120;2023-05-19T03:03:44;8.15;;;8.15;;
66371;SDS011;53168;51.146;17.120;2023-05-19T03:06:18;8.78;;;8.78;;
66371;SDS011;53168;51.146;17.120;2023-05-19T03:08:50;8.96;;;8.96;;
66371;SDS011;53168;51.146;17.120;2023-05-19T03:11:20;9.37;;;9.37;;
66371;SDS011;53168;51.146;17.120;2023-05-19T03:13:51;7.55;;;7.55;;
66371;SDS011;53168;51.146;17.120;2023-05-19T03:16:21;7.31;;;7.31;;
66371;SDS011;53168;51.146;17.120;2023-05-19T03:19:06;9.24;;;9.24;;
66371;SDS011;53168;51.146;17.120;2023-05-19T03:25:48;9.42;;;9.39;;
66371;SDS011;53168;51.146;17.120;2023-05-19T03:28:40;6.98;;;6.98;;
66371;SDS011;53168;51.146;17.120;2023-05-19T03:34:04;9.49;;;9.49;;
66371;SDS011;53168;51.146;17.120;2023-05-19T03:37:01;9.42;;;9.42;;
66371;SDS011;53168;51.146;17.120;2023-05-19T03:39:47;9.58;;;9.58;;
66371;SDS011;53168;51.146;17.120;2023-05-19T03:42:28;7.03;;;7.03;;
66371;SDS011;53168;51.146;17.120;2023-05-19T03:45:15;9.01;;;9.01;;
66371;SDS011;53168;51.146;17.120;2023-05-19T03:47:47;8.87;;;8.87;;
66371;SDS011;53168;51.146;17.120;2023-05-19T03:50:48;8.99;;;8.99;;
66371;SDS011;53168;51.146;17.120;2023-05-19T03:53:36;8.82;;;8.82;;
66371;SDS011;53168;51.146;17.120;2023-05-19T03:56:10;7.31;;;7.31;;
66371;SDS011;53168;51.146;17.120;2023-05-19T04:00:10;9.18;;;9.18;;
66371;SDS011;53168;51.146;17.120;2023-05-19T04:03:09;9.37;;;9.36;;
66371;SDS011;53168;51.146;17.120;2023-05-19T04:05:57;9.23;;;9.23;;
66371;SDS011;53168;51.146;17.120;2023-05-19T04:09:09;7.10;;;7.10;;
66371;SDS011;53168;51.146;17.120;2023-05-19T04:17:32;9.41;;;9.41;;
66371;SDS011;53168;51.146;17.120;2023-05-19T06:15:38;5.80;;;5.80;;
66371;SDS011;53168;51.146;17.120;2023-05-19T06:18:35;6.75;;;6.75;;
66371;SDS011;53168;51.146;17.120;2023-05-19T06:21:05;6.04;;;6.04;;
66371;SDS011;53168;51.146;17.120;2023-05-19T06:23:36;5.86;;;5.86;;
66371;SDS011;53168;51.146;17.120;2023-05-19T06:26:08;6.36;;;6.36;;
66371;SDS011;53168;51.146;17.120;2023-05-19T06:28:38;6.52;;;6.51;;
66371;SDS011;53168;51.146;17.120;2023-05-19T06:31:07;5.97;;;5.97;;
66371;SDS011;53168;51.146;17.120;2023-05-19T06:33:50;6.85;;;6.84;;
66371;SDS011;53168;51.146;17.120;2023-05-19T06:36:20;6.60;;;6.59;;
66371;SDS011;53168;51.146;17.120;2023-05-19T06:38:50;6.62;;;6.62;;
66371;SDS011;53168;51.146;17.120;2023-05-19T06:41:21;6.61;;;6.61;;
66371;SDS011;53168;51.146;17.120;2023-05-19T06:43:51;5.85;;;5.85;;
66371;SDS011;53168;51.146;17.120;2023-05-19T06:46:22;5.18;;;5.18;;
66371;SDS011;53168;51.146;17.120;2023-05-19T07:02:10;4.95;;;4.93;;
66371;SDS011;53168;51.146;17.120;2023-05-19T07:05:16;5.35;;;5.33;;
66371;SDS011;53168;51.146;17.120;2023-05-19T07:28:04;4.06;;;4.06;;
66371;SDS011;53168;51.146;17.120;2023-05-19T07:30:37;4.74;;;4.72;;
66371;SDS011;53168;51.146;17.120;2023-05-19T07:36:01;4.84;;;4.83;;
66371;SDS011;53168;51.146;17.120;2023-05-19T07:42:27;4.50;;;4.49;;
66371;SDS011;53168;51.146;17.120;2023-05-19T07:45:24;4.26;;;4.24;;
66371;SDS011;53168;51.146;17.120;2023-05-19T07:51:28;4.14;;;4.13;;
66371;SDS011;53168;51.146;17.120;2023-05-19T07:58:12;3.74;;;3.74;;
66371;SDS011;53168;51.146;17.120;2023-05-19T08:01:02;3.35;;;3.33;;
66371;SDS011;53168;51.146;17.120;2023-05-19T08:59:57;3.37;;;3.33;;
66371;SDS011;53168;51.146;17.120;2023-05-19T09:07:45;4.15;;;4.15;;
66371;SDS011;53168;51.146;17.120;2023-05-19T09:10:20;3.55;;;3.55;;
66371;SDS011;53168;51.146;17.120;2023-05-19T09:12:57;3.61;;;3.61;;
66371;SDS011;53168;51.146;17.120;2023-05-19T09:15:32;3.05;;;3.04;;
66371;SDS011;53168;51.146;17.120;2023-05-19T09:18:12;3.96;;;3.96;;
66371;SDS011;53168;51.146;17.120;2023-05-19T09:20:47;3.96;;;3.95;;
66371;SDS011;53168;51.146;17.120;2023-05-19T09:23:32;4.48;;;4.48;;
66371;SDS011;53168;51.146;17.120;2023-05-19T09:26:21;3.44;;;3.44;;
66371;SDS011;53168;51.146;17.120;2023-05-19T09:29:12;3.53;;;3.53;;
66371;SDS011;53168;51.146;17.120;2023-05-19T09:31:51;3.95;;;3.95;;
66371;SDS011;53168;51.146;17.120;2023-05-19T09:34:32;3.96;;;3.96;;
66371;SDS011;53168;51.146;17.120;2023-05-19T09:37:13;3.91;;;3.91;;
66371;SDS011;53168;51.146;17.120;2023-05-19T09:39:47;4.42;;;4.42;;
66371;SDS011;53168;51.146;17.120;2023-05-19T09:42:30;4.62;;;4.62;;
66371;SDS011;53168;51.146;17.120;2023-05-19T09:45:13;4.32;;;4.31;;
66371;SDS011;53168;51.146;17.120;2023-05-19T09:47:48;3.94;;;3.93;;
66371;SDS011;53168;51.146;17.120;2023-05-19T09:50:25;3.49;;;3.49;;
66371;SDS011;53168;51.146;17.120;2023-05-19T09:53:04;4.46;;;4.46;;
66371;SDS011;53168;51.146;17.120;2023-05-19T09:55:43;4.53;;;4.53;;
66371;SDS011;53168;51.146;17.120;2023-05-19T09:58:21;5.62;;;5.62;;
66371;SDS011;53168;51.146;17.120;2023-05-19T10:00:58;5.34;;;5.34;;
66371;SDS011;53168;51.146;17.120;2023-05-19T10:03:35;5.38;;;5.35;;
66371;SDS011;53168;51.146;17.120;2023-05-19T10:06:11;5.91;;;5.90;;
66371;SDS011;53168;51.146;17.120;2023-05-19T10:08:47;6.09;;;6.05;;
66371;SDS011;53168;51.146;17.120;2023-05-19T10:11:28;7.60;;;7.60;;
66371;SDS011;53168;51.146;17.120;2023-05-19T10:14:06;6.01;;;6.01;;
66371;SDS011;53168;51.146;17.120;2023-05-19T10:16:46;5.41;;;5.41;;
66371;SDS011;53168;51.146;17.120;2023-05-19T10:19:27;6.07;;;6.07;;
66371;SDS011;53168;51.146;17.120;2023-05-19T10:22:04;5.65;;;5.65;;
66371;SDS011;53168;51.146;17.120;2023-05-19T10:24:39;5.53;;;5.53;;
66371;SDS011;53168;51.146;17.120;2023-05-19T10:27:17;5.26;;;5.26;;
66371;SDS011;53168;51.146;17.120;2023-05-19T10:29:57;5.38;;;5.38;;
66371;SDS011;53168;51.146;17.120;2023-05-19T10:32:43;4.20;;;4.20;;
66371;SDS011;53168;51.146;17.120;2023-05-19T10:35:38;5.69;;;5.69;;
66371;SDS011;53168;51.146;17.120;2023-05-19T10:38:46;4.53;;;4.53;;
66371;SDS011;53168;51.146;17.120;2023-05-19T11:37:07;8.63;;;8.63;;
66371;SDS011;53168;51.146;17.120;2023-05-19T11:39:59;8.32;;;8.32;;
66371;SDS011;53168;51.146;17.120;2023-05-19T11:46:38;8.45;;;8.45;;
66371;SDS011;53168;51.146;17.120;2023-05-19T11:49:16;9.79;;;9.79;;
66371;SDS011;53168;51.146;17.120;2023-05-19T11:51:59;9.46;;;9.46;;
66371;SDS011;53168;51.146;17.120;2023-05-19T11:54:50;10.25;;;10.25;;
66371;SDS011;53168;51.146;17.120;2023-05-19T11:57:20;10.24;;;10.24;;
66371;SDS011;53168;51.146;17.120;2023-05-19T11:59:56;9.56;;;9.56;;
66371;SDS011;53168;51.146;17.120;2023-05-19T12:02:36;8.85;;;8.85;;
66371;SDS011;53168;51.146;17.120;2023-05-19T12:05:16;9.94;;;9.94;;
66371;SDS011;53168;51.146;17.120;2023-05-19T12:07:48;9.05;;;9.05;;
66371;SDS011;53168;51.146;17.120;2023-05-19T12:10:21;10.84;;;10.84;;
66371;SDS011;53168;51.146;17.120;2023-05-19T12:12:56;11.07;;;11.07;;
66371;SDS011;53168;51.146;17.120;2023-05-19T12:15:59;9.89;;;9.89;;
66371;SDS011;53168;51.146;17.120;2023-05-19T12:19:03;11.20;;;11.20;;
66371;SDS011;53168;51.146;17.120;2023-05-19T12:21:37;7.84;;;7.84;;
66371;SDS011;53168;51.146;17.120;2023-05-19T12:24:15;9.07;;;9.07;;
66371;SDS011;53168;51.146;17.120;2023-05-19T12:27:04;10.93;;;10.93;;
66371;SDS011;53168;51.146;17.120;2023-05-19T12:33:36;11.65;;;11.65;;
66371;SDS011;53168;51.146;17.120;2023-05-19T12:39:32;10.71;;;10.71;;
66371;SDS011;53168;51.146;17.120;2023-05-19T12:42:18;8.49;;;8.49;;
66371;SDS011;53168;51.146;17.120;2023-05-19T12:45:07;10.33;;;10.33;;
66371;SDS011;53168;51.146;17.120;2023-05-19T12:49:18;12.28;;;12.28;;
66371;SDS011;53168;51.146;17.120;2023-05-19T12:52:25;10.59;;;10.59;;
66371;SDS011;53168;51.146;17.120;2023-05-19T12:55:46;10.13;;;10.13;;
66371;SDS011;53168;51.146;17.120;2023-05-19T13:55:04;14.76;;;14.76;;
66371;SDS011;53168;51.146;17.120;2023-05-19T13:57:39;15.58;;;15.58;;
66371;SDS011;53168;51.146;17.120;2023-05-19T14:00:21;16.29;;;16.22;;
66371;SDS011;53168;51.146;17.120;2023-05-19T14:02:56;15.24;;;15.24;;
66371;SDS011;53168;51.146;17.120;2023-05-19T14:05:30;15.57;;;15.57;;
66371;SDS011;53168;51.146;17.120;2023-05-19T14:08:08;16.30;;;16.27;;
66371;SDS011;53168;51.146;17.120;2023-05-19T14:11:05;14.44;;;14.36;;
66371;SDS011;53168;51.146;17.120;2023-05-19T14:13:39;15.17;;;15.04;;
66371;SDS011;53168;51.146;17.120;2023-05-19T14:16:13;16.66;;;16.49;;
66371;SDS011;53168;51.146;17.120;2023-05-19T14:18:48;16.67;;;16.58;;
66371;SDS011;53168;51.146;17.120;2023-05-19T14:21:22;16.60;;;16.58;;
66371;SDS011;53168;51.146;17.120;2023-05-19T14:23:57;15.61;;;15.60;;
66371;SDS011;53168;51.146;17.120;2023-05-19T14:26:31;17.42;;;17.42;;
66371;SDS011;53168;51.146;17.120;2023-05-19T14:29:07;14.92;;;14.87;;
66371;SDS011;53168;51.146;17.120;2023-05-19T14:31:47;16.41;;;16.22;;
66371;SDS011;53168;51.146;17.120;2023-05-19T14:34:38;17.11;;;16.84;;
66371;SDS011;53168;51.146;17.120;2023-05-19T14:37:13;16.10;;;15.85;;
66371;SDS011;53168;51.146;17.120;2023-05-19T14:39:57;18.06;;;17.99;;
66371;SDS011;53168;51.146;17.120;2023-05-19T14:42:32;14.70;;;14.65;;
66371;SDS011;53168;51.146;17.120;2023-05-19T14:45:32;15.21;;;15.15;;
66371;SDS011;53168;51.146;17.120;2023-05-19T14:48:22;17.10;;;16.94;;
66371;SDS011;53168;51.146;17.120;2023-05-19T14:51:22;17.87;;;17.84;;
66371;SDS011;53168;51.146;17.120;2023-05-19T14:53:57;18.23;;;18.06;;
66371;SDS011;53168;51.146;17.120;2023-05-19T15:10:27;18.07;;;17.99;;
66371;SDS011;53168;51.146;17.120;2023-05-19T15:13:00;19.40;;;19.11;;
66371;SDS011;53168;51.146;17.120;2023-05-19T15:22:55;17.73;;;17.64;;
66371;SDS011;53168;51.146;17.120;2023-05-19T15:26:08;18.37;;;18.20;;
66371;SDS011;53168;51.146;17.120;2023-05-19T15:44:39;15.49;;;15.27;;
66371;SDS011;53168;51.146;17.120;2023-05-19T15:54:03;18.23;;;18.10;;
66371;SDS011;53168;51.146;17.120;2023-05-19T15:57:04;15.31;;;15.21;;
66371;SDS011;53168;51.146;17.120;2023-05-19T16:03:12;18.22;;;17.96;;
66371;SDS011;53168;51.146;17.120;2023-05-19T16:05:45;16.10;;;16.03;;
66371;SDS011;53168;51.146;17.120;2023-05-19T16:08:19;14.72;;;14.61;;
66371;SDS011;53168;51.146;17.120;2023-05-19T16:10:50;14.56;;;14.48;;
66371;SDS011;53168;51.146;17.120;2023-05-19T16:13:22;17.57;;;17.49;;
66371;SDS011;53168;51.146;17.120;2023-05-19T16:15:52;17.35;;;17.29;;
66371;SDS011;53168;51.146;17.120;2023-05-19T16:22:00;18.07;;;17.84;;
66371;SDS011;53168;51.146;17.120;2023-05-19T16:51:40;17.45;;;17.35;;
66371;SDS011;53168;51.146;17.120;2023-05-19T16:55:11;16.25;;;16.18;;
66371;SDS011;53168;51.146;17.120;2023-05-19T17:03:55;14.23;;;14.21;;
66371;SDS011;53168;51.146;17.120;2023-05-19T17:06:30;17.15;;;17.13;;
66371;SDS011;53168;51.146;17.120;2023-05-19T17:09:13;17.67;;;17.56;;
66371;SDS011;53168;51.146;17.120;2023-05-19T18:33:15;18.62;;;18.62;;
66371;SDS011;53168;51.146;17.120;2023-05-19T18:35:45;17.90;;;17.74;;
66371;SDS011;53168;51.146;17.120;2023-05-19T18:38:15;17.21;;;17.14;;
66371;SDS011;53168;51.146;17.120;2023-05-19T18:40:45;19.82;;;19.79;;
66371;SDS011;53168;51.146;17.120;2023-05-19T18:43:14;19.65;;;19.62;;
66371;SDS011;53168;51.146;17.120;2023-05-19T18:45:45;20.39;;;20.33;;
66371;SDS011;53168;51.146;17.120;2023-05-19T18:48:15;18.30;;;18.29;;
66371;SDS011;53168;51.146;17.120;2023-05-19T18:50:44;18.35;;;18.26;;
66371;SDS011;53168;51.146;17.120;2023-05-19T18:53:14;21.78;;;21.54;;
66371;SDS011;53168;51.146;17.120;2023-05-19T18:55:43;21.74;;;21.57;;
66371;SDS011;53168;51.146;17.120;2023-05-19T18:58:13;22.39;;;22.33;;
66371;SDS011;53168;51.146;17.120;2023-05-19T19:00:44;21.17;;;21.08;;
66371;SDS011;53168;51.146;17.120;2023-05-19T19:03:14;20.54;;;20.41;;
66371;SDS011;53168;51.146;17.120;2023-05-19T19:05:44;23.29;;;23.15;;
66371;SDS011;53168;51.146;17.120;2023-05-19T19:08:20;24.41;;;24.36;;
66371;SDS011;53168;51.146;17.120;2023-05-19T19:10:50;25.04;;;24.86;;
66371;SDS011;53168;51.146;17.120;2023-05-19T19:13:25;23.15;;;23.07;;
66371;SDS011;53168;51.146;17.120;2023-05-19T19:15:55;22.86;;;22.73;;
66371;SDS011;53168;51.146;17.120;2023-05-19T19:18:24;25.63;;;25.49;;
66371;SDS011;53168;51.146;17.120;2023-05-19T19:20:54;25.67;;;25.54;;
66371;SDS011;53168;51.146;17.120;2023-05-19T19:23:24;25.19;;;24.99;;
66371;SDS011;53168;51.146;17.120;2023-05-19T19:25:54;21.82;;;21.76;;
66371;SDS011;53168;51.146;17.120;2023-05-19T19:28:23;19.42;;;19.29;;
66371;SDS011;53168;51.146;17.120;2023-05-19T19:30:53;21.00;;;20.92;;
66371;SDS011;53168;51.146;17.120;2023-05-19T19:33:23;22.98;;;22.92;;
66371;SDS011;53168;51.146;17.120;2023-05-19T19:35:53;22.95;;;22.90;;
66371;SDS011;53168;51.146;17.120;2023-05-19T19:38:22;21.01;;;20.90;;
66371;SDS011;53168;51.146;17.120;2023-05-19T19:40:52;18.16;;;18.06;;
66371;SDS011;53168;51.146;17.120;2023-05-19T19:43:22;22.03;;;22.00;;
66371;SDS011;53168;51.146;17.120;2023-05-19T19:45:57;22.12;;;22.06;;
66371;SDS011;53168;51.146;17.120;2023-05-19T19:48:30;21.04;;;21.01;;
66371;SDS011;53168;51.146;17.120;2023-05-19T19:51:00;18.64;;;18.63;;
66371;SDS011;53168;51.146;17.120;2023-05-19T19:53:30;17.97;;;17.96;;
66371;SDS011;53168;51.146;17.120;2023-05-19T19:56:01;20.73;;;20.69;;
66371;SDS011;53168;51.146;17.120;2023-05-19T19:58:33;20.32;;;20.30;;
66371;SDS011;53168;51.146;17.120;2023-05-19T20:01:04;20.24;;;20.20;;
66371;SDS011;53168;51.146;17.120;2023-05-19T20:03:34;18.32;;;18.25;;
66371;SDS011;53168;51.146;17.120;2023-05-19T20:06:04;19.47;;;19.39;;
66371;SDS011;53168;51.146;17.120;2023-05-19T20:08:34;20.47;;;20.36;;
66371;SDS011;53168;51.146;17.120;2023-05-19T20:11:03;20.55;;;20.45;;
66371;SDS011;53168;51.146;17.120;2023-05-19T20:13:33;18.60;;;18.56;;
66371;SDS011;53168;51.146;17.120;2023-05-19T20:16:03;18.01;;;18.00;;
66371;SDS011;53168;51.146;17.120;2023-05-19T20:18:33;20.43;;;20.41;;
66371;SDS011;53168;51.146;17.120;2023-05-19T20:21:03;19.57;;;19.55;;
66371;SDS011;53168;51.146;17.120;2023-05-19T20:23:33;19.48;;;19.48;;
66371;SDS011;53168;51.146;17.120;2023-05-19T20:26:04;16.15;;;16.14;;
66371;SDS011;53168;51.146;17.120;2023-05-19T20:28:40;16.92;;;16.90;;
66371;SDS011;53168;51.146;17.120;2023-05-19T20:31:09;19.71;;;19.64;;
66371;SDS011;53168;51.146;17.120;2023-05-19T20:33:40;20.56;;;20.38;;
66371;SDS011;53168;51.146;17.120;2023-05-19T20:36:13;20.20;;;20.10;;
66371;SDS011;53168;51.146;17.120;2023-05-19T20:38:43;16.38;;;16.38;;
66371;SDS011;53168;51.146;17.120;2023-05-19T20:41:15;20.23;;;20.20;;
66371;SDS011;53168;51.146;17.120;2023-05-19T20:43:49;21.95;;;21.88;;
66371;SDS011;53168;51.146;17.120;2023-05-19T20:46:21;21.94;;;21.89;;
66371;SDS011;53168;51.146;17.120;2023-05-19T20:48:55;19.05;;;18.94;;
66371;SDS011;53168;51.146;17.120;2023-05-19T20:51:25;18.96;;;18.91;;
66371;SDS011;53168;51.146;17.120;2023-05-19T20:53:54;22.48;;;22.41;;
66371;SDS011;53168;51.146;17.120;2023-05-19T20:56:34;22.31;;;22.28;;
66371;SDS011;53168;51.146;17.120;2023-05-19T20:59:08;22.26;;;22.20;;
66371;SDS011;53168;51.146;17.120;2023-05-19T21:01:40;21.39;;;21.35;;
66371;SDS011;53168;51.146;17.120;2023-05-19T21:04:13;24.85;;;24.53;;
66371;SDS011;53168;51.146;17.120;2023-05-19T21:06:43;24.66;;;24.39;;
66371;SDS011;53168;51.146;17.120;2023-05-19T21:09:21;23.77;;;23.33;;
66371;SDS011;53168;51.146;17.120;2023-05-19T21:11:51;20.88;;;20.72;;
66371;SDS011;53168;51.146;17.120;2023-05-19T21:14:25;24.59;;;24.50;;
66371;SDS011;53168;51.146;17.120;2023-05-19T21:16:59;26.18;;;26.03;;
66371;SDS011;53168;51.146;17.120;2023-05-19T21:19:33;25.12;;;24.96;;
66371;SDS011;53168;51.146;17.120;2023-05-19T21:22:10;21.65;;;21.55;;
66371;SDS011;53168;51.146;17.120;2023-05-19T21:24:44;25.35;;;25.26;;
66371;SDS011;53168;51.146;17.120;2023-05-19T21:27:25;26.73;;;26.41;;
66371;SDS011;53168;51.146;17.120;2023-05-19T21:30:01;26.19;;;25.90;;
66371;SDS011;53168;51.146;17.120;2023-05-19T21:32:42;23.97;;;23.62;;
66371;SDS011;53168;51.146;17.120;2023-05-19T21:35:24;23.97;;;23.59;;
66371;SDS011;53168;51.146;17.120;2023-05-19T21:38:01;26.86;;;26.59;;
66371;SDS011;53168;51.146;17.120;2023-05-19T21:40:51;25.42;;;25.08;;
66371;SDS011;53168;51.146;17.120;2023-05-19T21:43:25;23.06;;;22.70;;
66371;SDS011;53168;51.146;17.120;2023-05-19T21:46:03;24.20;;;23.77;;
66371;SDS011;53168;51.146;17.120;2023-05-19T21:48:47;27.25;;;26.79;;
66371;SDS011;53168;51.146;17.120;2023-05-19T21:51:22;24.53;;;24.09;;
66371;SDS011;53168;51.146;17.120;2023-05-19T21:53:59;23.60;;;23.34;;
66371;SDS011;53168;51.146;17.120;2023-05-19T21:56:36;26.16;;;25.86;;
66371;SDS011;53168;51.146;17.120;2023-05-19T21:59:13;27.30;;;26.76;;
66371;SDS011;53168;51.146;17.120;2023-05-19T22:01:47;25.90;;;25.57;;
66371;SDS011;53168;51.146;17.120;2023-05-19T22:04:22;21.82;;;21.70;;
66371;SDS011;53168;51.146;17.120;2023-05-19T22:07:03;27.97;;;27.57;;
66371;SDS011;53168;51.146;17.120;2023-05-19T22:09:40;27.29;;;26.97;;
66371;SDS011;53168;51.146;17.120;2023-05-19T22:12:17;26.26;;;25.93;;
66371;SDS011;53168;51.146;17.120;2023-05-19T22:14:52;24.80;;;24.65;;
66371;SDS011;53168;51.146;17.120;2023-05-19T22:17:26;27.66;;;27.14;;
66371;SDS011;53168;51.146;17.120;2023-05-19T22:20:00;27.04;;;26.50;;
66371;SDS011;53168;51.146;17.120;2023-05-19T22:22:34;25.29;;;24.91;;
66371;SDS011;53168;51.146;17.120;2023-05-19T22:29:11;26.52;;;25.75;;
66371;SDS011;53168;51.146;17.120;2023-05-19T22:38:57;28.09;;;27.32;;
66371;SDS011;53168;51.146;17.120;2023-05-19T22:41:41;28.86;;;27.72;;
66371;SDS011;53168;51.146;17.120;2023-05-19T22:47:39;24.79;;;24.68;;
66371;SDS011;53168;51.146;17.120;2023-05-19T22:50:22;28.06;;;27.67;;
66371;SDS011;53168;51.146;17.120;2023-05-19T22:53:04;30.07;;;29.30;;
66371;SDS011;53168;51.146;17.120;2023-05-19T22:55:40;25.86;;;25.55;;
66371;SDS011;53168;51.146;17.120;2023-05-19T22:58:18;24.49;;;24.07;;
66371;SDS011;53168;51.146;17.120;2023-05-19T23:00:59;28.79;;;28.20;;
66371;SDS011;53168;51.146;17.120;2023-05-19T23:03:33;28.97;;;28.57;;
66371;SDS011;53168;51.146;17.120;2023-05-19T23:06:15;28.44;;;27.75;;
66371;SDS011;53168;51.146;17.120;2023-05-19T23:08:59;24.30;;;23.74;;
66371;SDS011;53168;51.146;17.120;2023-05-19T23:11:34;26.90;;;26.06;;
66371;SDS011;53168;51.146;17.120;2023-05-19T23:14:08;27.92;;;27.14;;
66371;SDS011;53168;51.146;17.120;2023-05-19T23:16:42;29.13;;;28.41;;
66371;SDS011;53168;51.146;17.120;2023-05-19T23:19:15;25.96;;;25.42;;
66371;SDS011;53168;51.146;17.120;2023-05-19T23:21:50;24.81;;;24.46;;
66371;SDS011;53168;51.146;17.120;2023-05-19T23:24:24;27.19;;;26.52;;
66371;SDS011;53168;51.146;17.120;2023-05-19T23:26:58;27.35;;;26.57;;
66371;SDS011;53168;51.146;17.120;2023-05-19T23:29:31;25.26;;;24.68;;
66371;SDS011;53168;51.146;17.120;2023-05-19T23:32:06;23.27;;;22.81;;
66371;SDS011;53168;51.146;17.120;2023-05-19T23:34:40;27.59;;;26.65;;
66371;SDS011;53168;51.146;17.120;2023-05-19T23:37:16;27.84;;;27.38;;
66371;SDS011;53168;51.146;17.120;2023-05-19T23:39:49;27.15;;;26.43;;
66371;SDS011;53168;51.146;17.120;2023-05-19T23:42:23;23.90;;;23.39;;
66371;SDS011;53168;51.146;17.120;2023-05-19T23:44:59;25.57;;;24.89;;
66371;SDS011;53168;51.146;17.120;2023-05-19T23:47:33;27.93;;;26.97;;
66371;SDS011;53168;51.146;17.120;2023-05-19T23:50:07;26.67;;;26.11;;
66371;SDS011;53168;51.146;17.120;2023-05-19T23:52:42;24.57;;;24.02;;
66371;SDS011;53168;51.146;17.120;2023-05-19T23:55:19;22.68;;;22.17;;
66371;SDS011;53168;51.146;17.120;2023-05-19T23:57:52;26.96;;;26.13;;
